Time;durP1;ratioP1;P1;durP2;ratioP2;P2;SDS_P1;SDS_P2;PMS_P1;PMS_P2;Temp;Humidity;BMP_temperature;BMP_pressure;BME280_temperature;BME280_humidity;BME280_pressure;Samples;Min_cycle;Max_cycle;Signal;HPM_P1;HPM_P2
2021/09/02 00:00:33;;;;;;;;;;;;;;;15.41;100.00;102153.41;5049135;28;19936;-69
2021/09/02 00:03:01;;;;;;;;;;;;;;;15.47;100.00;102147.41;5045862;28;20313;-69
2021/09/02 00:05:29;;;;;;;;;;;;;;;15.44;100.00;102140.47;5049064;28;19950;-69
2021/09/02 00:07:57;;;;;;;;;;;;;;;15.44;100.00;102145.88;5052136;28;19973;-69
2021/09/02 00:10:26;;;;;;;;;;;;;;;15.14;100.00;102149.97;5045109;28;19948;-70
2021/09/02 00:12:53;;;;;;;;;;;;;;;15.19;100.00;102152.16;5049566;28;20024;-70
2021/09/02 00:15:21;;;;;;;;;;;;;;;15.24;100.00;102144.44;5047489;28;19924;-69
2021/09/02 00:17:49;;;;;;;;;;;;;;;15.29;100.00;102144.81;5052061;28;19974;-69
2021/09/02 00:20:16;;;;;;;;;;;;;;;15.30;100.00;102141.09;5049031;28;19925;-69
2021/09/02 00:22:44;;;;;;;;;;;;;;;15.42;100.00;102138.97;5049160;28;19998;-71
2021/09/02 00:25:12;;;;;;;;;;;;;;;15.30;100.00;102138.41;5051326;28;20279;-69
2021/09/02 00:27:41;;;;;;;;;;;;;;;15.27;100.00;102136.06;5043553;28;19924;-70
2021/09/02 00:30:09;;;;;;;;;;;;;;;15.17;100.00;102133.50;5048847;28;20263;-69
2021/09/02 00:32:36;;;;;;;;;;;;;;;15.05;100.00;102130.22;5047898;28;19921;-69
2021/09/02 00:35:05;;;;;;;;;;;;;;;15.11;100.00;102140.34;5052807;28;19928;-69
2021/09/02 00:37:33;;;;;;;;;;;;;;;15.13;100.00;102130.25;5050514;28;20339;-70
2021/09/02 00:40:01;;;;;;;;;;;;;;;15.28;100.00;102133.19;5048124;28;19924;-71
2021/09/02 00:42:28;;;;;;;;;;;;;;;15.47;100.00;102134.78;5045743;28;19928;-72
2021/09/02 00:44:58;;;;;;;;;;;;;;;15.38;100.00;102122.31;5054358;28;19964;-73
2021/09/02 00:47:27;;;;;;;;;;;;;;;15.27;100.00;102122.59;5047657;28;19929;-69
2021/09/02 00:49:54;;;;;;;;;;;;;;;15.31;100.00;102127.50;5051040;28;20343;-70
2021/09/02 00:52:23;;;;;;;;;;;;;;;15.28;100.00;102122.44;5049730;28;19970;-70
2021/09/02 00:54:52;;;;;;;;;;;;;;;15.49;100.00;102129.22;5048452;28;19929;-72
2021/09/02 00:57:20;;;;;;;;;;;;;;;15.19;100.00;102122.56;5048464;28;19982;-70
2021/09/02 00:59:48;;;;;;;;;;;;;;;15.27;100.00;102122.59;5047935;28;19975;-69
2021/09/02 01:02:17;;;;;;;;;;;;;;;15.28;100.00;102116.19;5046347;28;19982;-69
2021/09/02 01:04:45;;;;;;;;;;;;;;;15.25;100.00;102121.91;5050178;28;19921;-70
2021/09/02 01:07:12;;;;;;;;;;;;;;;15.28;100.00;102117.06;5047393;28;19928;-70
2021/09/02 01:09:40;;;;;;;;;;;;;;;15.22;100.00;102123.06;5048386;28;20296;-69
2021/09/02 01:12:27;;;;;;;;;;;;;;;15.21;100.00;102115.16;5048915;28;19921;-70
2021/09/02 01:14:55;;;;;;;;;;;;;;;15.29;100.00;102116.03;5048927;28;19924;-69
2021/09/02 01:17:24;;;;;;;;;;;;;;;15.41;100.00;102111.22;5050919;28;20127;-71
2021/09/02 01:19:52;;;;;;;;;;;;;;;15.15;100.00;102112.13;4983748;28;1840837;-69
2021/09/02 01:22:20;;;;;;;;;;;;;;;15.02;100.00;102109.03;5047252;28;19925;-69
2021/09/02 01:24:50;;;;;;;;;;;;;;;14.95;100.00;102111.50;5050860;28;19928;-69
2021/09/02 01:27:18;;;;;;;;;;;;;;;14.94;100.00;102111.69;5044741;28;19978;-69
2021/09/02 01:29:49;;;;;;;;;;;;;;;14.94;100.00;102114.38;5048082;28;19928;-69
2021/09/02 01:32:17;;;;;;;;;;;;;;;14.98;100.00;102111.22;5047148;28;20338;-70
2021/09/02 01:34:44;;;;;;;;;;;;;;;15.11;100.00;102108.06;5042291;28;20368;-70
2021/09/02 01:37:12;;;;;;;;;;;;;;;15.04;100.00;102108.88;5048004;28;19920;-70
2021/09/02 01:39:39;;;;;;;;;;;;;;;14.99;100.00;102106.66;5047426;28;19932;-70
2021/09/02 01:42:13;;;;;;;;;;;;;;;15.00;100.00;102104.81;5052282;28;19921;-70
2021/09/02 01:44:41;;;;;;;;;;;;;;;15.00;100.00;102105.69;5045592;28;19978;-70
2021/09/02 01:47:21;;;;;;;;;;;;;;;15.01;100.00;102107.34;5045845;28;19928;-69
2021/09/02 01:49:49;;;;;;;;;;;;;;;14.99;100.00;102109.34;5050450;28;19924;-69
2021/09/02 01:52:17;;;;;;;;;;;;;;;15.01;100.00;102107.34;5050721;28;19928;-69
2021/09/02 01:54:44;;;;;;;;;;;;;;;14.91;100.00;102103.94;5053184;28;19979;-70
2021/09/02 01:57:13;;;;;;;;;;;;;;;15.00;100.00;102102.13;5045267;28;20288;-69
2021/09/02 01:59:41;;;;;;;;;;;;;;;15.04;100.00;102109.72;5048803;28;19929;-69
2021/09/02 02:02:09;;;;;;;;;;;;;;;15.03;100.00;102107.19;5047827;28;19920;-69
2021/09/02 02:04:37;;;;;;;;;;;;;;;14.86;100.00;102100.91;5049947;28;20291;-69
2021/09/02 02:07:05;;;;;;;;;;;;;;;14.90;100.00;102105.78;5055215;28;19958;-69
2021/09/02 02:09:33;;;;;;;;;;;;;;;14.94;100.00;102103.59;5048846;28;19974;-70
2021/09/02 02:12:00;;;;;;;;;;;;;;;14.93;100.00;102105.47;5047256;28;19921;-69
2021/09/02 02:14:29;;;;;;;;;;;;;;;14.98;100.00;102111.22;5048263;28;19925;-69
2021/09/02 02:16:57;;;;;;;;;;;;;;;14.93;100.00;102105.47;5041301;28;19921;-70
2021/09/02 02:19:25;;;;;;;;;;;;;;;14.87;100.00;102111.50;5051217;28;20017;-70
2021/09/02 02:21:52;;;;;;;;;;;;;;;15.04;100.00;102108.88;5047073;28;20246;-69
2021/09/02 02:24:20;;;;;;;;;;;;;;;14.85;100.00;102109.97;5047340;28;20378;-69
2021/09/02 02:26:48;;;;;;;;;;;;;;;14.70;100.00;102113.25;5044973;28;19978;-69
2021/09/02 02:29:15;;;;;;;;;;;;;;;14.70;100.00;102107.00;5050217;28;19932;-69
2021/09/02 02:31:44;;;;;;;;;;;;;;;14.74;100.00;102106.56;5052984;28;19947;-70
2021/09/02 02:34:12;;;;;;;;;;;;;;;14.75;100.00;102102.84;5046505;28;19975;-69
2021/09/02 02:36:40;;;;;;;;;;;;;;;14.71;100.00;102097.94;5046795;28;19920;-69
2021/09/02 02:39:07;;;;;;;;;;;;;;;14.75;100.00;102097.47;5047166;28;19929;-69
2021/09/02 02:41:35;;;;;;;;;;;;;;;14.74;100.00;102092.25;5054233;28;20252;-69
2021/09/02 02:44:03;;;;;;;;;;;;;;;14.73;100.00;102093.25;5047682;28;19920;-69
2021/09/02 02:46:30;;;;;;;;;;;;;;;14.55;100.00;102093.28;5047840;28;20214;-69
2021/09/02 02:48:59;;;;;;;;;;;;;;;14.49;100.00;102089.41;5049000;28;19959;-69
2021/09/02 02:51:27;;;;;;;;;;;;;;;14.51;100.00;102091.91;5047303;28;19932;-69
2021/09/02 02:53:55;;;;;;;;;;;;;;;14.54;100.00;102092.44;5045814;28;19978;-69
2021/09/02 02:56:22;;;;;;;;;;;;;;;14.46;100.00;102090.53;5045379;28;19929;-69
2021/09/02 02:58:50;;;;;;;;;;;;;;;14.45;100.00;102090.72;5046911;28;19929;-70
2021/09/02 03:01:18;;;;;;;;;;;;;;;14.57;100.00;102092.13;5044551;28;20284;-69
2021/09/02 03:03:46;;;;;;;;;;;;;;;14.71;100.00;102082.66;5047838;28;20316;-71
2021/09/02 03:06:15;;;;;;;;;;;;;;;14.70;100.00;102088.19;5047074;28;19954;-69
2021/09/02 03:08:43;;;;;;;;;;;;;;;14.72;100.00;102081.66;5049709;28;19920;-70
2021/09/02 03:11:12;;;;;;;;;;;;;;;14.54;100.00;102076.31;5048872;28;19924;-69
2021/09/02 03:13:40;;;;;;;;;;;;;;;14.57;100.00;102077.84;5052974;28;19947;-69
2021/09/02 03:16:08;;;;;;;;;;;;;;;14.59;100.00;102079.38;5042103;28;19921;-69
2021/09/02 03:18:36;;;;;;;;;;;;;;;14.55;100.00;102078.00;5047185;28;19929;-69
2021/09/02 03:21:03;;;;;;;;;;;;;;;14.41;100.00;102068.66;5049778;28;19925;-69
2021/09/02 03:23:33;;;;;;;;;;;;;;;14.66;100.00;102074.25;5048009;28;19920;-71
2021/09/02 03:26:00;;;;;;;;;;;;;;;14.51;100.00;102071.25;5044716;28;20209;-70
2021/09/02 03:28:28;;;;;;;;;;;;;;;14.46;100.00;102069.03;5043849;28;19924;-70
2021/09/02 03:30:56;;;;;;;;;;;;;;;14.35;100.00;102061.25;5042312;28;19928;-69
2021/09/02 03:33:23;;;;;;;;;;;;;;;14.27;100.00;102063.88;5047304;28;19936;-70
2021/09/02 03:35:51;;;;;;;;;;;;;;;14.18;100.00;102060.28;5045134;28;19944;-69
2021/09/02 03:38:19;;;;;;;;;;;;;;;14.37;100.00;102064.59;5048294;28;20430;-69
2021/09/02 03:40:48;;;;;;;;;;;;;;;14.35;100.00;102061.25;5047874;28;19933;-71
2021/09/02 03:43:20;;;;;;;;;;;;;;;14.34;100.00;102062.25;5049977;28;20210;-69
2021/09/02 03:45:47;;;;;;;;;;;;;;;14.26;100.00;102067.56;5043901;28;19921;-69
2021/09/02 03:48:15;;;;;;;;;;;;;;;14.35;100.00;102071.16;5048952;28;19964;-69
2021/09/02 03:50:43;;;;;;;;;;;;;;;14.42;100.00;102072.22;5047187;28;20367;-69
2021/09/02 03:53:10;;;;;;;;;;;;;;;14.38;100.00;102066.28;5046593;28;19924;-69
2021/09/02 03:55:38;;;;;;;;;;;;;;;14.53;100.00;102068.41;5044319;28;19974;-69
2021/09/02 03:58:08;;;;;;;;;;;;;;;14.56;100.00;102065.38;5045774;28;19925;-71
2021/09/02 04:00:35;;;;;;;;;;;;;;;14.47;100.00;102072.56;5046111;28;19925;-71
2021/09/02 04:03:04;;;;;;;;;;;;;;;14.44;100.00;102068.38;5049925;28;19948;-71
2021/09/02 04:05:32;;;;;;;;;;;;;;;14.51;100.00;102065.88;5048489;28;19927;-71
2021/09/02 04:08:00;;;;;;;;;;;;;;;14.28;100.00;102068.25;5041394;28;19931;-69
2021/09/02 04:10:27;;;;;;;;;;;;;;;14.38;100.00;102068.16;5043759;28;20956;-71
2021/09/02 04:12:55;;;;;;;;;;;;;;;14.15;100.00;102067.81;5047487;28;19920;-69
2021/09/02 04:15:24;;;;;;;;;;;;;;;14.04;100.00;102069.75;5044790;28;19928;-69
2021/09/02 04:17:51;;;;;;;;;;;;;;;14.09;100.00;102072.81;5045344;28;20309;-69
2021/09/02 04:20:19;;;;;;;;;;;;;;;13.93;100.00;102070.00;5046795;28;19921;-69
2021/09/02 04:22:47;;;;;;;;;;;;;;;13.88;100.00;102077.69;5045115;28;20123;-69
2021/09/02 04:25:14;;;;;;;;;;;;;;;13.95;100.00;102068.00;5046667;28;19971;-69
2021/09/02 04:27:42;;;;;;;;;;;;;;;13.92;100.00;102070.97;5047793;28;20213;-70
2021/09/02 04:30:13;;;;;;;;;;;;;;;13.72;100.00;102064.94;5051417;28;19920;-69
2021/09/02 04:32:42;;;;;;;;;;;;;;;13.64;100.00;102063.03;5044092;28;19929;-69
2021/09/02 04:35:10;;;;;;;;;;;;;;;13.64;100.00;102064.84;5046392;28;19939;-70
2021/09/02 04:37:41;;;;;;;;;;;;;;;13.70;100.00;102062.41;5045891;28;20443;-69
2021/09/02 04:40:09;;;;;;;;;;;;;;;13.72;100.00;102059.56;5051249;28;19975;-69
2021/09/02 04:42:37;;;;;;;;;;;;;;;13.90;100.00;102067.63;5049141;28;19932;-71
2021/09/02 04:45:05;;;;;;;;;;;;;;;14.03;100.00;102059.16;5054742;28;19921;-71
2021/09/02 04:47:33;;;;;;;;;;;;;;;13.88;100.00;102059.72;5045222;28;19921;-71
2021/09/02 04:50:02;;;;;;;;;;;;;;;13.76;100.00;102067.19;5048499;28;20370;-72
2021/09/02 04:52:30;;;;;;;;;;;;;;;13.73;100.00;102067.47;5045780;28;19990;-70
2021/09/02 04:54:58;;;;;;;;;;;;;;;13.72;100.00;102072.97;5051060;28;19928;-71
2021/09/02 04:57:26;;;;;;;;;;;;;;;13.62;100.00;102075.75;5044044;28;20032;-71
2021/09/02 04:59:53;;;;;;;;;;;;;;;13.57;100.00;102075.38;5047118;28;19928;-70
2021/09/02 05:02:21;;;;;;;;;;;;;;;13.66;100.00;102078.97;5047792;28;20320;-70
2021/09/02 05:04:49;;;;;;;;;;;;;;;13.80;100.00;102080.28;5049568;28;19921;-70
2021/09/02 05:07:29;;;;;;;;;;;;;;;13.57;100.00;102083.44;5045067;28;19936;-70
2021/09/02 05:09:56;;;;;;;;;;;;;;;13.47;100.00;102077.25;5045616;28;19975;-70
2021/09/02 05:12:24;;;;;;;;;;;;;;;13.32;100.00;102076.91;5049669;28;20263;-70
2021/09/02 05:14:51;;;;;;;;;;;;;;;13.27;100.00;102083.56;5048684;28;19924;-70
2021/09/02 05:17:19;;;;;;;;;;;;;;;13.12;100.00;102076.19;5047864;28;19924;-70
2021/09/02 05:19:47;;;;;;;;;;;;;;;13.15;100.00;102083.94;5051554;28;20112;-70
2021/09/02 05:22:14;;;;;;;;;;;;;;;13.28;100.00;102081.72;5049116;28;19925;-70
2021/09/02 05:24:44;;;;;;;;;;;;;;;13.22;100.00;102075.13;5047122;28;19983;-70
2021/09/02 05:27:12;;;;;;;;;;;;;;;13.24;100.00;102072.28;5045508;28;19921;-70
2021/09/02 05:29:39;;;;;;;;;;;;;;;13.31;100.00;102078.75;5049787;28;19920;-70
2021/09/02 05:32:08;;;;;;;;;;;;;;;13.12;100.00;102070.81;5043588;28;20363;-70
2021/09/02 05:34:36;;;;;;;;;;;;;;;13.15;100.00;102082.06;5048254;28;20292;-70
2021/09/02 05:37:03;;;;;;;;;;;;;;;13.23;100.00;102078.66;5045613;28;19928;-70
2021/09/02 05:39:31;;;;;;;;;;;;;;;13.53;100.00;102076.66;5046685;28;19924;-70
2021/09/02 05:42:00;;;;;;;;;;;;;;;13.76;100.00;102075.22;5048924;28;19932;-70
2021/09/02 05:44:28;;;;;;;;;;;;;;;13.80;100.00;102069.53;5051258;28;20243;-71
2021/09/02 05:46:55;;;;;;;;;;;;;;;13.64;100.00;102067.53;5047637;28;19932;-72
2021/09/02 05:49:23;;;;;;;;;;;;;;;13.59;100.00;102070.69;5049363;28;20295;-69
2021/09/02 05:51:51;;;;;;;;;;;;;;;14.36;100.00;102062.94;5046681;28;19921;-72
2021/09/02 05:54:21;;;;;;;;;;;;;;;14.79;100.00;102063.88;5048089;28;20521;-72
2021/09/02 05:56:48;;;;;;;;;;;;;;;14.91;100.00;102060.91;5044428;28;19936;-72
2021/09/02 05:59:17;;;;;;;;;;;;;;;14.96;100.00;102059.41;5050484;28;19920;-69
2021/09/02 06:01:45;;;;;;;;;;;;;;;14.81;100.00;102069.09;5050053;28;20003;-69
2021/09/02 06:04:13;;;;;;;;;;;;;;;14.74;100.00;102073.44;5054709;28;19921;-69
2021/09/02 06:06:41;;;;;;;;;;;;;;;14.47;100.00;102072.56;5047523;28;20325;-70
2021/09/02 06:09:09;;;;;;;;;;;;;;;14.85;100.00;102077.69;5045588;28;19925;-70
2021/09/02 06:11:36;;;;;;;;;;;;;;;15.08;100.00;102081.50;5047385;28;20002;-70
2021/09/02 06:14:04;;;;;;;;;;;;;;;15.17;100.00;102078.81;5048546;28;20363;-69
2021/09/02 06:16:33;;;;;;;;;;;;;;;15.17;100.00;102078.81;5045041;28;19956;-69
2021/09/02 06:19:01;;;;;;;;;;;;;;;15.19;100.00;102080.34;5044101;28;20353;-69
2021/09/02 06:21:29;;;;;;;;;;;;;;;14.82;100.00;102078.03;5047960;28;19936;-69
2021/09/02 06:23:56;;;;;;;;;;;;;;;15.34;100.00;102075.19;5049440;28;19932;-69
2021/09/02 06:26:24;;;;;;;;;;;;;;;16.14;100.00;102068.41;5046427;28;20331;-69
2021/09/02 06:28:51;;;;;;;;;;;;;;;16.65;100.00;102073.53;5056297;28;19974;-69
2021/09/02 06:31:20;;;;;;;;;;;;;;;16.25;100.00;102070.75;5047910;28;21196;-69
2021/09/02 06:33:49;;;;;;;;;;;;;;;16.14;100.00;102071.09;5047117;28;19921;-69
2021/09/02 06:36:19;;;;;;;;;;;;;;;16.66;100.00;102065.25;5046728;28;19974;-70
2021/09/02 06:38:46;;;;;;;;;;;;;;;17.20;100.00;102059.16;5053043;28;20213;-69
2021/09/02 06:41:14;;;;;;;;;;;;;;;17.74;100.00;102054.78;5053041;28;19921;-69
2021/09/02 06:43:42;;;;;;;;;;;;;;;17.77;100.00;102057.09;5049402;28;20316;-70
2021/09/02 06:46:09;;;;;;;;;;;;;;;18.29;100.00;102058.22;5048631;28;19924;-70
2021/09/02 06:48:37;;;;;;;;;;;;;;;18.06;100.00;102066.38;5047966;28;20209;-70
2021/09/02 06:51:06;;;;;;;;;;;;;;;17.84;100.00;102055.34;5048304;28;19929;-70
2021/09/02 06:53:34;;;;;;;;;;;;;;;18.19;100.00;102066.59;5048972;28;19925;-69
2021/09/02 06:56:01;;;;;;;;;;;;;;;17.88;100.00;102056.69;5044235;28;20363;-69
2021/09/02 06:58:29;;;;;;;;;;;;;;;18.20;100.00;102070.13;5050577;28;19966;-69
2021/09/02 07:00:57;;;;;;;;;;;;;;;18.27;100.00;102060.25;5049518;28;19947;-70
2021/09/02 07:03:25;;;;;;;;;;;;;;;18.10;100.00;102059.56;5045954;28;19964;-70
2021/09/02 07:05:52;;;;;;;;;;;;;;;18.04;100.00;102060.31;5047700;28;20388;-70
2021/09/02 07:08:21;;;;;;;;;;;;;;;17.93;100.00;102058.84;5047924;28;20252;-70
2021/09/02 07:10:49;;;;;;;;;;;;;;;18.20;100.00;102064.72;5043269;28;20065;-69
2021/09/02 07:13:17;;;;;;;;;;;;;;;18.34;100.00;102063.06;5048494;28;19928;-69
2021/09/02 07:15:44;;;;;;;;;;;;;;;18.15;100.00;102049.03;5043655;28;19965;-70
2021/09/02 07:18:12;;;;;;;;;;;;;;;18.40;100.00;102059.63;5048583;28;19920;-69
2021/09/02 07:20:43;;;;;;;;;;;;;;;18.11;100.00;102055.00;5045305;28;20324;-70
2021/09/02 07:23:11;;;;;;;;;;;;;;;18.12;100.00;102054.81;5047485;28;19981;-70
2021/09/02 07:25:40;;;;;;;;;;;;;;;18.46;100.00;102053.47;5046370;28;19921;-69
2021/09/02 07:28:08;;;;;;;;;;;;;;;18.70;100.00;102057.75;5044948;28;19921;-69
2021/09/02 07:30:35;;;;;;;;;;;;;;;18.72;100.00;102058.41;5045360;28;20003;-69
2021/09/02 07:33:03;;;;;;;;;;;;;;;19.23;100.00;102063.03;5047191;28;19978;-70
2021/09/02 07:35:31;;;;;;;;;;;;;;;18.01;100.00;102055.25;5045500;28;19978;-70
2021/09/02 07:37:58;;;;;;;;;;;;;;;18.03;100.00;102061.31;5043471;28;20263;-70
2021/09/02 07:40:26;;;;;;;;;;;;;;;18.84;100.00;102061.50;5046372;28;19943;-70
2021/09/02 07:42:55;;;;;;;;;;;;;;;19.00;100.00;102056.94;5048995;28;19982;-69
2021/09/02 07:45:23;;;;;;;;;;;;;;;18.78;100.00;102059.53;5048686;28;20304;-69
2021/09/02 07:47:50;;;;;;;;;;;;;;;18.45;100.00;102059.91;5043990;28;19921;-69
2021/09/02 07:50:18;;;;;;;;;;;;;;;18.30;100.00;102064.44;5048568;28;19931;-69
2021/09/02 07:52:45;;;;;;;;;;;;;;;17.89;100.00;102063.78;5048944;28;20224;-70
2021/09/02 07:55:13;;;;;;;;;;;;;;;18.38;100.00;102054.38;5046439;28;19928;-70
2021/09/02 07:57:46;;;;;;;;;;;;;;;18.41;100.00;102056.75;5044014;28;20122;-70
2021/09/02 08:00:17;;;;;;;;;;;;;;;18.41;100.00;102056.75;5047544;28;20171;-70
2021/09/02 08:02:44;;;;;;;;;;;;;;;18.08;100.00;102056.22;5045026;28;19935;-71
2021/09/02 08:05:13;;;;;;;;;;;;;;;17.98;100.00;102063.75;5045090;28;20216;-70
2021/09/02 08:07:47;;;;;;;;;;;;;;;18.00;100.00;102059.84;5039003;28;20245;-70
2021/09/02 08:10:15;;;;;;;;;;;;;;;18.53;100.00;102059.81;5042004;28;19951;-70
2021/09/02 08:12:43;;;;;;;;;;;;;;;18.62;100.00;102062.44;5044818;28;19978;-70
2021/09/02 08:15:10;;;;;;;;;;;;;;;19.54;100.00;102067.34;5048106;28;20363;-70
2021/09/02 08:17:40;;;;;;;;;;;;;;;20.02;100.00;102060.53;5045916;28;20023;-70
2021/09/02 08:20:08;;;;;;;;;;;;;;;19.86;100.00;102064.31;5048174;28;19925;-70
2021/09/02 08:22:36;;;;;;;;;;;;;;;19.69;100.00;102064.56;5049542;28;19925;-70
2021/09/02 08:25:04;;;;;;;;;;;;;;;19.52;100.00;102066.69;5050257;28;20301;-70
2021/09/02 08:27:31;;;;;;;;;;;;;;;19.69;100.00;102066.44;5043110;28;19924;-70
2021/09/02 08:29:59;;;;;;;;;;;;;;;19.51;100.00;102058.78;5045394;28;19925;-70
2021/09/02 08:32:27;;;;;;;;;;;;;;;19.30;100.00;102070.41;5049268;28;19924;-70
2021/09/02 08:34:56;;;;;;;;;;;;;;;20.40;100.00;102065.56;5049822;28;19975;-70
2021/09/02 08:37:24;;;;;;;;;;;;;;;20.43;100.00;102062.50;5047915;28;20260;-69
2021/09/02 08:39:52;;;;;;;;;;;;;;;20.59;100.00;102059.44;5050100;28;19928;-70
2021/09/02 08:42:20;;;;;;;;;;;;;;;21.09;100.00;102059.31;5050294;28;19924;-70
2021/09/02 08:44:48;;;;;;;;;;;;;;;20.96;100.00;102057.34;5052238;28;20255;-70
2021/09/02 08:47:16;;;;;;;;;;;;;;;20.78;100.00;102063.34;5041461;28;19921;-70
2021/09/02 08:49:44;;;;;;;;;;;;;;;21.06;100.00;102069.72;5051678;28;19921;-70
2021/09/02 08:52:13;;;;;;;;;;;;;;;20.47;100.00;102063.78;5050789;28;19924;-70
2021/09/02 08:54:41;;;;;;;;;;;;;;;20.95;100.00;102055.69;5051292;28;19982;-70
2021/09/02 08:57:09;;;;;;;;;;;;;;;20.24;100.00;102058.59;5051489;28;20232;-70
2021/09/02 08:59:36;;;;;;;;;;;;;;;20.71;100.00;102057.06;5050530;28;20361;-70
2021/09/02 09:02:19;;;;;;;;;;;;;;;21.26;100.00;102059.75;5051123;28;20201;-70
2021/09/02 09:04:48;;;;;;;;;;;;;;;19.45;100.00;102054.97;5048688;28;20274;-70
2021/09/02 09:07:17;;;;;;;;;;;;;;;19.81;100.00;102056.78;5050243;28;20263;-70
2021/09/02 09:09:51;;;;;;;;;;;;;;;20.43;100.00;102060.59;5051446;28;19921;-70
2021/09/02 09:12:19;;;;;;;;;;;;;;;20.67;100.00;102063.03;5049928;28;20251;-70
2021/09/02 09:14:54;;;;;;;;;;;;;;;20.18;100.00;102064.81;5053696;28;19924;-70
2021/09/02 09:17:24;;;;;;;;;;;;;;;21.04;100.00;102063.69;5044770;28;19921;-70
2021/09/02 09:19:52;;;;;;;;;;;;;;;21.97;100.00;102069.34;5053313;28;19924;-70
2021/09/02 09:22:21;;;;;;;;;;;;;;;21.21;100.00;102058.69;5051651;28;19920;-70
2021/09/02 09:24:50;;;;;;;;;;;;;;;21.17;100.00;102049.31;5047446;28;19969;-70
2021/09/02 09:27:19;;;;;;;;;;;;;;;21.12;100.00;102052.63;5047529;28;20344;-70
2021/09/02 09:29:58;;;;;;;;;;;;;;;21.26;100.00;102048.88;5047386;28;19928;-70
2021/09/02 09:32:26;;;;;;;;;;;;;;;21.50;100.00;102050.22;5048237;28;20052;-70
2021/09/02 09:34:54;;;;;;;;;;;;;;;21.75;100.00;102041.50;5047036;28;19928;-70
2021/09/02 09:37:23;;;;;;;;;;;;;;;21.67;100.00;102041.69;5047078;28;20231;-69
2021/09/02 09:39:51;;;;;;;;;;;;;;;21.92;100.00;102036.47;5049652;28;19921;-69
2021/09/02 09:42:19;;;;;;;;;;;;;;;20.75;100.00;102043.91;5049498;28;19921;-69
2021/09/02 09:44:46;;;;;;;;;;;;;;;20.88;100.00;102040.41;5050089;28;19929;-69
2021/09/02 09:47:15;;;;;;;;;;;;;;;20.27;100.00;102044.63;5044009;28;19982;-69
2021/09/02 09:49:43;;;;;;;;;;;;;;;21.65;100.00;102039.19;5047493;28;19997;-69
2021/09/02 09:52:18;;;;;;;;;;;;;;;21.90;100.00;102033.16;5049435;28;19925;-70
2021/09/02 09:54:47;;;;;;;;;;;;;;;22.24;100.00;102028.50;5050398;28;20086;-69
2021/09/02 09:57:15;;;;;;;;;;;;;;;22.60;100.00;102021.75;5049419;28;19937;-70
2021/09/02 09:59:43;;;;;;;;;;;;;;;21.90;100.00;102025.00;5048654;28;19931;-70
2021/09/02 10:02:11;;;;;;;;;;;;;;;21.64;100.00;102015.75;5045610;28;19920;-71
2021/09/02 10:04:39;;;;;;;;;;;;;;;21.35;100.00;102021.53;5050534;28;20293;-71
2021/09/02 10:07:09;;;;;;;;;;;;;;;21.34;100.00;102018.00;5044585;28;19931;-70
2021/09/02 10:09:36;;;;;;;;;;;;;;;22.51;100.00;102012.97;5047283;28;19928;-71
2021/09/02 10:12:06;;;;;;;;;;;;;;;21.42;100.00;102015.09;5048624;28;20359;-70
2021/09/02 10:14:33;;;;;;;;;;;;;;;20.98;100.00;102008.31;5048165;28;19975;-70
2021/09/02 10:17:01;;;;;;;;;;;;;;;20.97;100.00;102007.44;5048905;28;19920;-70
2021/09/02 10:19:29;;;;;;;;;;;;;;;20.00;100.00;102019.19;5048539;28;19921;-70
2021/09/02 10:21:57;;;;;;;;;;;;;;;20.75;100.00;102016.75;5052584;28;19970;-70
2021/09/02 10:24:36;;;;;;;;;;;;;;;21.45;100.00;102009.25;5048384;28;20151;-70
2021/09/02 10:27:33;;;;;;;;;;;;;;;21.70;100.00;101999.69;5041523;28;19920;-71
2021/09/02 10:30:01;;;;;;;;;;;;;;;21.97;100.00;102000.50;5050520;28;19929;-71
2021/09/02 10:32:29;;;;;;;;;;;;;;;22.30;100.00;101997.72;5047934;28;19929;-70
2021/09/02 10:35:12;;;;;;;;;;;;;;;22.02;100.00;101993.38;5051525;28;19997;-70
2021/09/02 10:37:52;;;;;;;;;;;;;;;22.55;100.00;101996.22;5044123;28;19920;-71
2021/09/02 10:40:40;;;;;;;;;;;;;;;22.42;100.00;101991.66;5048001;28;19974;-70
2021/09/02 10:43:10;;;;;;;;;;;;;;;22.22;100.00;101994.41;5043858;28;19947;-71
2021/09/02 10:45:38;;;;;;;;;;;;;;;21.98;100.00;101985.84;5047238;28;19920;-71
2021/09/02 10:48:07;;;;;;;;;;;;;;;22.77;100.00;101983.16;5045938;28;20374;-71
2021/09/02 10:50:36;;;;;;;;;;;;;;;22.58;100.00;101974.84;5045181;28;19928;-69
2021/09/02 10:53:08;;;;;;;;;;;;;;;23.42;100.00;101968.53;5047085;28;19998;-71
2021/09/02 10:55:36;;;;;;;;;;;;;;;22.71;100.00;101971.25;5048156;28;19978;-71
2021/09/02 10:58:04;;;;;;;;;;;;;;;23.52;100.00;101963.44;5050512;28;19921;-71
2021/09/02 11:00:34;;;;;;;;;;;;;;;23.02;100.00;101975.91;5050207;28;19920;-73
2021/09/02 11:03:12;;;;;;;;;;;;;;;23.49;100.00;101972.03;5048608;28;20094;-69
2021/09/02 11:05:40;;;;;;;;;;;;;;;23.64;100.00;101972.53;5042397;28;19925;-71
2021/09/02 11:08:08;;;;;;;;;;;;;;;23.76;100.00;101974.53;5050795;28;20304;-71
2021/09/02 11:10:36;;;;;;;;;;;;;;;23.63;100.00;101976.34;5048043;28;19921;-71
2021/09/02 11:13:04;;;;;;;;;;;;;;;22.60;100.00;101972.75;5048049;28;19925;-71
2021/09/02 11:15:32;;;;;;;;;;;;;;;23.03;100.00;101965.81;5053876;28;19936;-70
2021/09/02 11:18:02;;;;;;;;;;;;;;;23.26;100.00;101970.72;5047372;28;19920;-71
2021/09/02 11:20:42;;;;;;;;;;;;;;;21.73;100.00;101972.94;5045955;28;19932;-70
2021/09/02 11:23:11;;;;;;;;;;;;;;;23.17;100.00;101966.63;5051214;28;19928;-70
2021/09/02 11:25:43;;;;;;;;;;;;;;;23.67;100.00;101969.41;5042820;28;19920;-70
2021/09/02 11:28:11;;;;;;;;;;;;;;;23.59;100.00;101958.75;5048119;28;19920;-70
2021/09/02 11:30:38;;;;;;;;;;;;;;;22.60;100.00;101961.03;5045951;28;19987;-70
2021/09/02 11:33:08;;;;;;;;;;;;;;;23.35;100.00;101957.69;5047179;28;19921;-70
2021/09/02 11:35:36;;;;;;;;;;;;;;;22.56;100.00;101968.78;5042390;28;20259;-70
2021/09/02 11:38:04;;;;;;;;;;;;;;;23.23;100.00;101964.91;5044811;28;19939;-70
2021/09/02 11:40:33;;;;;;;;;;;;;;;24.01;100.00;101967.19;5048216;28;19928;-70
2021/09/02 11:43:01;;;;;;;;;;;;;;;24.09;100.00;101962.53;5043741;28;20026;-70
2021/09/02 11:45:30;;;;;;;;;;;;;;;24.61;100.00;101954.81;5045795;28;19920;-71
2021/09/02 11:48:02;;;;;;;;;;;;;;;23.66;100.00;101951.34;5043772;28;19928;-70
2021/09/02 11:50:31;;;;;;;;;;;;;;;24.32;100.00;101940.84;5049383;28;19924;-70
2021/09/02 11:52:59;;;;;;;;;;;;;;;24.27;100.00;101937.97;5050333;28;19924;-70
2021/09/02 11:55:28;;;;;;;;;;;;;;;23.53;100.00;101935.09;5049599;28;19921;-70
2021/09/02 11:57:56;;;;;;;;;;;;;;;23.44;100.00;101933.72;5046437;28;19925;-70
2021/09/02 12:00:23;;;;;;;;;;;;;;;24.95;100.00;101927.03;5052835;28;20263;-70
2021/09/02 12:02:52;;;;;;;;;;;;;;;24.86;100.00;101930.06;5052899;28;20263;-70
2021/09/02 12:05:20;;;;;;;;;;;;;;;24.12;100.00;101929.31;5051927;28;19928;-70
2021/09/02 12:07:51;;;;;;;;;;;;;;;25.10;100.00;101930.97;5048959;28;20340;-70
2021/09/02 12:10:19;;;;;;;;;;;;;;;25.42;100.00;101927.16;5050354;28;19929;-70
2021/09/02 12:12:47;;;;;;;;;;;;;;;23.74;100.00;101933.88;5051370;28;19947;-70
2021/09/02 12:15:23;;;;;;;;;;;;;;;23.34;100.00;101924.16;5052505;28;19920;-70
2021/09/02 12:17:51;;;;;;;;;;;;;;;24.86;100.00;101919.16;5048939;28;20256;-70
2021/09/02 12:20:27;;;;;;;;;;;;;;;26.31;100.00;101928.91;5049881;28;19925;-71
2021/09/02 12:22:56;;;;;;;;;;;;;;;23.88;100.00;101918.25;5049756;28;20358;-70
2021/09/02 12:25:24;;;;;;;;;;;;;;;24.52;100.00;101932.38;5051243;28;20185;-70
2021/09/02 12:27:52;;;;;;;;;;;;;;;22.68;100.00;101937.13;5044923;28;19936;-70
2021/09/02 12:30:35;;;;;;;;;;;;;;;24.28;100.00;101931.44;5051183;28;19924;-71
2021/09/02 12:33:09;;;;;;;;;;;;;;;22.74;100.00;101929.13;5049550;28;19925;-70